GCTS

Tenerife Sur/Reina Sofia

Airport
ICAO code
GCTS
Summary
ICAO Region
EUR
ICAO Territory
Location

Granadilla de Abona,

Coordinates
28° 2' 44" N , 16° 34' 24" W
KCC
Metar
Observation
GCTS 260900Z 07010KT 9999 FEW019 BKN050 23/20 Q1014 NOSIG
Station
Tenerife Sur
Date/Time
2022-09-26 09:00:00
Wind direction
70°
Wind speed
10 kts
Lowest cloud amount
few clouds
Temperature
23°C
Dew point
20°C
Humidity
83%
QNH
1014 hPa
Weather condition
n/a

Description

International airport serving the island of Tenerife.

Climatology

Dry-summer subtropical ”Mediterranean" climate (Köppen climate classification Csa) - characterized by hot, dry summers and mild winters. During the summer, subtropical high pressure cells dominate, making rainfall unlikely except for the occasional thunderstorm. In the winter, periodic storms bring rain (snow at higher elevations).

Runways

Designator Length Width Surface Rops
8/26 3200 45 ASP Yes/Yes

Airport map

Aerial View

SKYbrary Partners:

Safety knowledge contributed by: